sensor_id;sensor_type;location;lat;lon;timestamp;P1;durP1;ratioP1;P2;durP2;ratioP2
5135;SDS011;2586;48.710;9.202;2022-10-26T00:00:46;8.93;;;2.70;;
5135;SDS011;2586;48.710;9.202;2022-10-26T00:03:12;12.23;;;2.67;;
5135;SDS011;2586;48.710;9.202;2022-10-26T00:05:38;7.00;;;3.47;;
5135;SDS011;2586;48.710;9.202;2022-10-26T00:08:04;4.73;;;2.63;;
5135;SDS011;2586;48.710;9.202;2022-10-26T00:10:33;5.53;;;3.00;;
5135;SDS011;2586;48.710;9.202;2022-10-26T00:12:59;8.73;;;2.43;;
5135;SDS011;2586;48.710;9.202;2022-10-26T00:15:26;9.37;;;2.90;;
5135;SDS011;2586;48.710;9.202;2022-10-26T00:17:51;6.43;;;2.73;;
5135;SDS011;2586;48.710;9.202;2022-10-26T00:20:17;12.57;;;2.60;;
5135;SDS011;2586;48.710;9.202;2022-10-26T00:22:43;6.23;;;2.77;;
5135;SDS011;2586;48.710;9.202;2022-10-26T00:25:08;5.33;;;2.50;;
5135;SDS011;2586;48.710;9.202;2022-10-26T00:27:34;2.83;;;2.50;;
5135;SDS011;2586;48.710;9.202;2022-10-26T00:30:00;8.03;;;2.83;;
5135;SDS011;2586;48.710;9.202;2022-10-26T00:32:26;6.40;;;3.03;;
5135;SDS011;2586;48.710;9.202;2022-10-26T00:34:52;3.93;;;2.53;;
5135;SDS011;2586;48.710;9.202;2022-10-26T00:37:18;5.80;;;3.17;;
5135;SDS011;2586;48.710;9.202;2022-10-26T00:39:43;4.53;;;2.80;;
5135;SDS011;2586;48.710;9.202;2022-10-26T00:42:13;6.13;;;2.97;;
5135;SDS011;2586;48.710;9.202;2022-10-26T00:47:14;13.93;;;2.47;;
5135;SDS011;2586;48.710;9.202;2022-10-26T00:49:44;5.00;;;2.67;;
5135;SDS011;2586;48.710;9.202;2022-10-26T00:52:13;7.73;;;2.53;;
5135;SDS011;2586;48.710;9.202;2022-10-26T00:54:40;4.40;;;2.90;;
5135;SDS011;2586;48.710;9.202;2022-10-26T00:57:06;6.27;;;2.90;;
5135;SDS011;2586;48.710;9.202;2022-10-26T00:59:31;5.50;;;3.20;;
5135;SDS011;2586;48.710;9.202;2022-10-26T01:01:57;14.33;;;3.00;;
5135;SDS011;2586;48.710;9.202;2022-10-26T01:04:23;3.93;;;2.77;;
5135;SDS011;2586;48.710;9.202;2022-10-26T01:06:49;4.40;;;2.77;;
5135;SDS011;2586;48.710;9.202;2022-10-26T01:09:16;7.27;;;2.70;;
5135;SDS011;2586;48.710;9.202;2022-10-26T01:11:43;10.37;;;3.27;;
5135;SDS011;2586;48.710;9.202;2022-10-26T01:14:09;6.13;;;2.80;;
5135;SDS011;2586;48.710;9.202;2022-10-26T01:22:46;3.93;;;2.70;;
5135;SDS011;2586;48.710;9.202;2022-10-26T01:25:12;6.23;;;3.30;;
5135;SDS011;2586;48.710;9.202;2022-10-26T01:28:00;4.47;;;2.80;;
5135;SDS011;2586;48.710;9.202;2022-10-26T01:38:41;6.33;;;2.00;;
5135;SDS011;2586;48.710;9.202;2022-10-26T01:41:28;6.30;;;2.53;;
5135;SDS011;2586;48.710;9.202;2022-10-26T01:44:03;3.53;;;2.60;;
5135;SDS011;2586;48.710;9.202;2022-10-26T01:46:34;9.37;;;2.80;;
5135;SDS011;2586;48.710;9.202;2022-10-26T01:49:05;10.73;;;3.20;;
5135;SDS011;2586;48.710;9.202;2022-10-26T01:51:35;4.20;;;2.33;;
5135;SDS011;2586;48.710;9.202;2022-10-26T01:54:02;7.93;;;3.10;;
5135;SDS011;2586;48.710;9.202;2022-10-26T01:56:29;6.50;;;2.70;;
5135;SDS011;2586;48.710;9.202;2022-10-26T01:59:01;5.87;;;2.40;;
5135;SDS011;2586;48.710;9.202;2022-10-26T02:07:18;4.23;;;2.47;;
5135;SDS011;2586;48.710;9.202;2022-10-26T02:15:52;3.20;;;2.67;;
5135;SDS011;2586;48.710;9.202;2022-10-26T02:20:54;3.33;;;2.63;;
5135;SDS011;2586;48.710;9.202;2022-10-26T02:23:27;4.13;;;3.10;;
5135;SDS011;2586;48.710;9.202;2022-10-26T02:25:57;7.20;;;2.60;;
5135;SDS011;2586;48.710;9.202;2022-10-26T02:28:27;3.27;;;2.40;;
5135;SDS011;2586;48.710;9.202;2022-10-26T02:30:58;4.40;;;2.37;;
5135;SDS011;2586;48.710;9.202;2022-10-26T02:33:28;2.80;;;2.60;;
5135;SDS011;2586;48.710;9.202;2022-10-26T02:35:57;11.23;;;2.80;;
5135;SDS011;2586;48.710;9.202;2022-10-26T02:38:26;6.00;;;2.50;;
5135;SDS011;2586;48.710;9.202;2022-10-26T02:40:54;3.90;;;2.50;;
5135;SDS011;2586;48.710;9.202;2022-10-26T02:43:22;10.30;;;3.53;;
5135;SDS011;2586;48.710;9.202;2022-10-26T02:46:00;10.70;;;3.07;;
5135;SDS011;2586;48.710;9.202;2022-10-26T02:48:31;4.27;;;2.90;;
5135;SDS011;2586;48.710;9.202;2022-10-26T02:51:02;4.73;;;2.67;;
5135;SDS011;2586;48.710;9.202;2022-10-26T02:53:33;7.67;;;3.00;;
5135;SDS011;2586;48.710;9.202;2022-10-26T02:59:10;18.13;;;4.30;;
5135;SDS011;2586;48.710;9.202;2022-10-26T03:01:38;7.80;;;3.30;;
5135;SDS011;2586;48.710;9.202;2022-10-26T03:04:04;9.27;;;3.70;;
5135;SDS011;2586;48.710;9.202;2022-10-26T03:06:30;20.00;;;3.10;;
5135;SDS011;2586;48.710;9.202;2022-10-26T03:08:55;11.97;;;4.10;;
5135;SDS011;2586;48.710;9.202;2022-10-26T03:11:21;6.70;;;4.13;;
5135;SDS011;2586;48.710;9.202;2022-10-26T03:13:46;5.37;;;2.93;;
5135;SDS011;2586;48.710;9.202;2022-10-26T03:16:12;5.00;;;3.13;;
5135;SDS011;2586;48.710;9.202;2022-10-26T03:18:37;3.47;;;3.00;;
5135;SDS011;2586;48.710;9.202;2022-10-26T03:21:03;14.90;;;3.00;;
5135;SDS011;2586;48.710;9.202;2022-10-26T03:23:29;6.03;;;2.50;;
5135;SDS011;2586;48.710;9.202;2022-10-26T03:25:58;2.37;;;2.17;;
5135;SDS011;2586;48.710;9.202;2022-10-26T03:28:24;6.83;;;3.60;;
5135;SDS011;2586;48.710;9.202;2022-10-26T03:30:50;11.37;;;3.60;;
5135;SDS011;2586;48.710;9.202;2022-10-26T03:33:16;4.90;;;2.90;;
5135;SDS011;2586;48.710;9.202;2022-10-26T03:35:41;7.43;;;2.83;;
5135;SDS011;2586;48.710;9.202;2022-10-26T03:38:07;11.40;;;2.90;;
5135;SDS011;2586;48.710;9.202;2022-10-26T03:40:33;6.37;;;2.87;;
5135;SDS011;2586;48.710;9.202;2022-10-26T03:43:00;4.00;;;2.80;;
5135;SDS011;2586;48.710;9.202;2022-10-26T03:45:25;7.10;;;2.70;;
5135;SDS011;2586;48.710;9.202;2022-10-26T03:47:51;4.53;;;2.87;;
5135;SDS011;2586;48.710;9.202;2022-10-26T03:50:18;6.33;;;2.40;;
5135;SDS011;2586;48.710;9.202;2022-10-26T03:52:45;3.00;;;2.40;;
5135;SDS011;2586;48.710;9.202;2022-10-26T03:55:12;6.97;;;2.50;;
5135;SDS011;2586;48.710;9.202;2022-10-26T03:57:44;8.37;;;3.03;;
5135;SDS011;2586;48.710;9.202;2022-10-26T04:00:11;4.43;;;2.07;;
5135;SDS011;2586;48.710;9.202;2022-10-26T04:02:39;3.17;;;2.17;;
5135;SDS011;2586;48.710;9.202;2022-10-26T04:05:06;7.03;;;2.33;;
5135;SDS011;2586;48.710;9.202;2022-10-26T04:07:32;12.37;;;2.67;;
5135;SDS011;2586;48.710;9.202;2022-10-26T04:09:57;4.33;;;2.33;;
5135;SDS011;2586;48.710;9.202;2022-10-26T04:12:23;9.83;;;2.23;;
5135;SDS011;2586;48.710;9.202;2022-10-26T04:14:48;14.80;;;2.77;;
5135;SDS011;2586;48.710;9.202;2022-10-26T04:17:14;13.97;;;3.00;;
5135;SDS011;2586;48.710;9.202;2022-10-26T04:19:40;7.47;;;2.40;;
5135;SDS011;2586;48.710;9.202;2022-10-26T04:22:05;5.17;;;2.43;;
5135;SDS011;2586;48.710;9.202;2022-10-26T04:24:31;5.50;;;2.00;;
5135;SDS011;2586;48.710;9.202;2022-10-26T04:26:56;9.83;;;2.60;;
5135;SDS011;2586;48.710;9.202;2022-10-26T04:29:22;3.17;;;2.30;;
5135;SDS011;2586;48.710;9.202;2022-10-26T04:31:47;6.43;;;2.60;;
5135;SDS011;2586;48.710;9.202;2022-10-26T04:34:13;6.23;;;2.50;;
5135;SDS011;2586;48.710;9.202;2022-10-26T04:36:38;5.67;;;2.80;;
5135;SDS011;2586;48.710;9.202;2022-10-26T04:39:04;14.87;;;3.33;;
5135;SDS011;2586;48.710;9.202;2022-10-26T04:41:29;5.40;;;2.47;;
5135;SDS011;2586;48.710;9.202;2022-10-26T04:43:55;7.60;;;2.10;;
5135;SDS011;2586;48.710;9.202;2022-10-26T04:46:21;3.10;;;2.30;;
5135;SDS011;2586;48.710;9.202;2022-10-26T04:48:47;3.70;;;2.60;;
5135;SDS011;2586;48.710;9.202;2022-10-26T04:51:13;10.27;;;2.30;;
5135;SDS011;2586;48.710;9.202;2022-10-26T04:53:38;7.20;;;2.90;;
5135;SDS011;2586;48.710;9.202;2022-10-26T04:56:04;5.70;;;2.73;;
5135;SDS011;2586;48.710;9.202;2022-10-26T04:58:29;2.73;;;2.40;;
5135;SDS011;2586;48.710;9.202;2022-10-26T05:00:55;8.23;;;2.60;;
5135;SDS011;2586;48.710;9.202;2022-10-26T05:03:21;5.53;;;3.03;;
5135;SDS011;2586;48.710;9.202;2022-10-26T05:05:46;4.10;;;3.07;;
5135;SDS011;2586;48.710;9.202;2022-10-26T05:08:12;2.93;;;2.13;;
5135;SDS011;2586;48.710;9.202;2022-10-26T05:10:38;20.47;;;3.03;;
5135;SDS011;2586;48.710;9.202;2022-10-26T05:13:04;10.13;;;3.10;;
5135;SDS011;2586;48.710;9.202;2022-10-26T05:15:30;3.60;;;2.43;;
5135;SDS011;2586;48.710;9.202;2022-10-26T05:17:56;3.27;;;2.00;;
5135;SDS011;2586;48.710;9.202;2022-10-26T05:20:24;3.73;;;2.27;;
5135;SDS011;2586;48.710;9.202;2022-10-26T05:22:56;4.03;;;2.10;;
5135;SDS011;2586;48.710;9.202;2022-10-26T05:25:22;6.93;;;2.00;;
5135;SDS011;2586;48.710;9.202;2022-10-26T05:27:48;3.90;;;2.40;;
5135;SDS011;2586;48.710;9.202;2022-10-26T05:30:14;4.07;;;2.50;;
5135;SDS011;2586;48.710;9.202;2022-10-26T05:32:39;4.27;;;2.00;;
5135;SDS011;2586;48.710;9.202;2022-10-26T05:35:05;10.63;;;2.50;;
5135;SDS011;2586;48.710;9.202;2022-10-26T05:37:31;4.00;;;2.50;;
5135;SDS011;2586;48.710;9.202;2022-10-26T05:39:56;7.87;;;2.90;;
5135;SDS011;2586;48.710;9.202;2022-10-26T05:42:22;6.90;;;2.97;;
5135;SDS011;2586;48.710;9.202;2022-10-26T05:44:49;16.63;;;2.50;;
5135;SDS011;2586;48.710;9.202;2022-10-26T05:47:15;9.67;;;2.87;;
5135;SDS011;2586;48.710;9.202;2022-10-26T05:49:40;3.50;;;2.60;;
5135;SDS011;2586;48.710;9.202;2022-10-26T05:52:06;11.93;;;3.13;;
5135;SDS011;2586;48.710;9.202;2022-10-26T05:54:31;7.40;;;2.40;;
5135;SDS011;2586;48.710;9.202;2022-10-26T05:56:57;8.90;;;3.80;;
5135;SDS011;2586;48.710;9.202;2022-10-26T05:59:23;5.57;;;2.30;;
5135;SDS011;2586;48.710;9.202;2022-10-26T06:02:01;6.83;;;2.10;;
5135;SDS011;2586;48.710;9.202;2022-10-26T06:04:54;5.43;;;3.20;;
5135;SDS011;2586;48.710;9.202;2022-10-26T06:07:26;8.60;;;2.83;;
5135;SDS011;2586;48.710;9.202;2022-10-26T06:09:52;8.33;;;2.80;;
5135;SDS011;2586;48.710;9.202;2022-10-26T06:12:18;9.77;;;2.63;;
5135;SDS011;2586;48.710;9.202;2022-10-26T06:14:44;6.70;;;3.00;;
5135;SDS011;2586;48.710;9.202;2022-10-26T06:24:54;12.80;;;2.40;;
5135;SDS011;2586;48.710;9.202;2022-10-26T06:30:13;5.70;;;1.93;;
5135;SDS011;2586;48.710;9.202;2022-10-26T06:32:39;10.80;;;2.13;;
5135;SDS011;2586;48.710;9.202;2022-10-26T06:37:54;5.50;;;1.77;;
5135;SDS011;2586;48.710;9.202;2022-10-26T06:40:24;9.23;;;2.50;;
5135;SDS011;2586;48.710;9.202;2022-10-26T06:42:50;2.57;;;2.37;;
5135;SDS011;2586;48.710;9.202;2022-10-26T06:45:29;2.27;;;1.93;;
5135;SDS011;2586;48.710;9.202;2022-10-26T06:48:06;3.53;;;2.10;;
5135;SDS011;2586;48.710;9.202;2022-10-26T06:50:37;3.17;;;2.23;;
5135;SDS011;2586;48.710;9.202;2022-10-26T06:53:13;3.10;;;1.83;;
5135;SDS011;2586;48.710;9.202;2022-10-26T06:55:52;2.77;;;1.80;;
5135;SDS011;2586;48.710;9.202;2022-10-26T06:58:21;2.30;;;2.10;;
5135;SDS011;2586;48.710;9.202;2022-10-26T07:00:50;5.17;;;1.80;;
5135;SDS011;2586;48.710;9.202;2022-10-26T07:03:17;2.90;;;1.50;;
5135;SDS011;2586;48.710;9.202;2022-10-26T07:05:43;5.13;;;2.63;;
5135;SDS011;2586;48.710;9.202;2022-10-26T07:08:09;1.70;;;1.20;;
5135;SDS011;2586;48.710;9.202;2022-10-26T07:10:35;1.67;;;1.30;;
5135;SDS011;2586;48.710;9.202;2022-10-26T07:13:03;5.40;;;2.00;;
5135;SDS011;2586;48.710;9.202;2022-10-26T07:15:32;6.17;;;1.60;;
5135;SDS011;2586;48.710;9.202;2022-10-26T07:17:58;8.33;;;1.83;;
5135;SDS011;2586;48.710;9.202;2022-10-26T07:20:24;11.37;;;2.10;;
5135;SDS011;2586;48.710;9.202;2022-10-26T07:22:53;8.47;;;2.57;;
5135;SDS011;2586;48.710;9.202;2022-10-26T07:25:20;3.10;;;1.50;;
5135;SDS011;2586;48.710;9.202;2022-10-26T07:27:46;3.43;;;2.00;;
5135;SDS011;2586;48.710;9.202;2022-10-26T07:30:11;9.90;;;1.80;;
5135;SDS011;2586;48.710;9.202;2022-10-26T07:32:37;9.53;;;1.77;;
5135;SDS011;2586;48.710;9.202;2022-10-26T07:35:03;2.43;;;1.37;;
5135;SDS011;2586;48.710;9.202;2022-10-26T07:37:29;10.13;;;2.40;;
5135;SDS011;2586;48.710;9.202;2022-10-26T07:39:54;6.07;;;2.30;;
5135;SDS011;2586;48.710;9.202;2022-10-26T07:42:20;7.17;;;2.23;;
5135;SDS011;2586;48.710;9.202;2022-10-26T07:44:46;7.10;;;2.13;;
5135;SDS011;2586;48.710;9.202;2022-10-26T07:47:12;2.80;;;2.00;;
5135;SDS011;2586;48.710;9.202;2022-10-26T07:49:37;4.40;;;1.37;;
5135;SDS011;2586;48.710;9.202;2022-10-26T07:52:03;2.03;;;1.23;;
5135;SDS011;2586;48.710;9.202;2022-10-26T07:54:29;17.00;;;2.70;;
5135;SDS011;2586;48.710;9.202;2022-10-26T07:56:55;12.13;;;2.57;;
5135;SDS011;2586;48.710;9.202;2022-10-26T07:59:21;8.00;;;1.90;;
5135;SDS011;2586;48.710;9.202;2022-10-26T08:01:47;7.30;;;1.73;;
5135;SDS011;2586;48.710;9.202;2022-10-26T08:04:13;3.27;;;1.70;;
5135;SDS011;2586;48.710;9.202;2022-10-26T08:06:39;7.83;;;2.43;;
5135;SDS011;2586;48.710;9.202;2022-10-26T08:09:05;4.97;;;1.70;;
5135;SDS011;2586;48.710;9.202;2022-10-26T08:11:30;13.37;;;2.40;;
5135;SDS011;2586;48.710;9.202;2022-10-26T08:13:56;4.13;;;2.27;;
5135;SDS011;2586;48.710;9.202;2022-10-26T08:16:22;3.37;;;1.50;;
5135;SDS011;2586;48.710;9.202;2022-10-26T08:18:48;11.00;;;2.20;;
5135;SDS011;2586;48.710;9.202;2022-10-26T08:21:16;3.97;;;1.83;;
5135;SDS011;2586;48.710;9.202;2022-10-26T08:23:42;4.00;;;1.80;;
5135;SDS011;2586;48.710;9.202;2022-10-26T08:26:08;9.00;;;2.10;;
5135;SDS011;2586;48.710;9.202;2022-10-26T08:28:37;3.70;;;1.90;;
5135;SDS011;2586;48.710;9.202;2022-10-26T08:31:03;9.47;;;2.50;;
5135;SDS011;2586;48.710;9.202;2022-10-26T08:33:29;3.57;;;2.00;;
5135;SDS011;2586;48.710;9.202;2022-10-26T08:35:55;3.33;;;2.30;;
5135;SDS011;2586;48.710;9.202;2022-10-26T08:38:29;7.13;;;2.20;;
5135;SDS011;2586;48.710;9.202;2022-10-26T08:40:55;11.60;;;1.90;;
5135;SDS011;2586;48.710;9.202;2022-10-26T08:46:01;9.70;;;1.90;;
5135;SDS011;2586;48.710;9.202;2022-10-26T08:48:39;8.13;;;2.10;;
5135;SDS011;2586;48.710;9.202;2022-10-26T08:51:31;3.97;;;2.57;;
5135;SDS011;2586;48.710;9.202;2022-10-26T08:54:21;6.73;;;2.13;;
5135;SDS011;2586;48.710;9.202;2022-10-26T09:00:00;7.27;;;1.97;;
5135;SDS011;2586;48.710;9.202;2022-10-26T09:02:31;11.80;;;2.27;;
5135;SDS011;2586;48.710;9.202;2022-10-26T09:04:57;5.67;;;1.90;;
5135;SDS011;2586;48.710;9.202;2022-10-26T09:10:07;6.63;;;1.73;;
5135;SDS011;2586;48.710;9.202;2022-10-26T09:18:30;3.27;;;1.87;;
5135;SDS011;2586;48.710;9.202;2022-10-26T09:26:42;10.13;;;1.70;;
5135;SDS011;2586;48.710;9.202;2022-10-26T09:29:28;9.70;;;2.10;;
5135;SDS011;2586;48.710;9.202;2022-10-26T09:32:00;8.53;;;2.40;;
5135;SDS011;2586;48.710;9.202;2022-10-26T09:34:29;10.63;;;2.17;;
5135;SDS011;2586;48.710;9.202;2022-10-26T09:37:24;5.50;;;1.97;;
5135;SDS011;2586;48.710;9.202;2022-10-26T09:40:12;4.17;;;1.87;;
5135;SDS011;2586;48.710;9.202;2022-10-26T09:45:21;6.30;;;1.40;;
5135;SDS011;2586;48.710;9.202;2022-10-26T09:48:03;7.47;;;2.10;;
5135;SDS011;2586;48.710;9.202;2022-10-26T09:50:35;6.47;;;1.80;;
5135;SDS011;2586;48.710;9.202;2022-10-26T09:53:03;6.40;;;1.97;;
5135;SDS011;2586;48.710;9.202;2022-10-26T09:55:30;9.50;;;1.83;;
5135;SDS011;2586;48.710;9.202;2022-10-26T09:57:57;8.83;;;2.27;;
5135;SDS011;2586;48.710;9.202;2022-10-26T10:00:27;4.73;;;2.20;;
5135;SDS011;2586;48.710;9.202;2022-10-26T10:02:54;5.83;;;1.90;;
5135;SDS011;2586;48.710;9.202;2022-10-26T10:05:31;5.30;;;2.53;;
5135;SDS011;2586;48.710;9.202;2022-10-26T10:10:36;6.40;;;2.10;;
5135;SDS011;2586;48.710;9.202;2022-10-26T10:13:23;13.47;;;2.60;;
5135;SDS011;2586;48.710;9.202;2022-10-26T10:15:50;5.73;;;2.30;;
5135;SDS011;2586;48.710;9.202;2022-10-26T10:18:19;3.43;;;1.87;;
5135;SDS011;2586;48.710;9.202;2022-10-26T10:20:54;5.73;;;2.17;;
5135;SDS011;2586;48.710;9.202;2022-10-26T10:23:28;8.13;;;2.10;;
5135;SDS011;2586;48.710;9.202;2022-10-26T10:26:08;6.43;;;2.13;;
5135;SDS011;2586;48.710;9.202;2022-10-26T10:28:35;15.63;;;2.07;;
5135;SDS011;2586;48.710;9.202;2022-10-26T10:31:03;6.23;;;2.33;;
5135;SDS011;2586;48.710;9.202;2022-10-26T10:33:43;13.33;;;2.03;;
5135;SDS011;2586;48.710;9.202;2022-10-26T10:36:12;8.83;;;2.20;;
5135;SDS011;2586;48.710;9.202;2022-10-26T10:38:41;5.87;;;1.80;;
5135;SDS011;2586;48.710;9.202;2022-10-26T10:41:27;4.90;;;2.10;;
5135;SDS011;2586;48.710;9.202;2022-10-26T10:46:36;8.37;;;1.60;;
5135;SDS011;2586;48.710;9.202;2022-10-26T10:49:03;11.17;;;2.47;;
5135;SDS011;2586;48.710;9.202;2022-10-26T10:51:35;3.47;;;1.50;;
5135;SDS011;2586;48.710;9.202;2022-10-26T10:54:03;4.40;;;1.80;;
5135;SDS011;2586;48.710;9.202;2022-10-26T11:07:11;3.77;;;1.43;;
5135;SDS011;2586;48.710;9.202;2022-10-26T11:09:39;7.50;;;2.13;;
5135;SDS011;2586;48.710;9.202;2022-10-26T11:12:13;5.20;;;2.00;;
5135;SDS011;2586;48.710;9.202;2022-10-26T11:15:01;11.53;;;2.30;;
5135;SDS011;2586;48.710;9.202;2022-10-26T11:17:35;8.53;;;2.00;;
5135;SDS011;2586;48.710;9.202;2022-10-26T11:20:12;5.90;;;1.70;;
5135;SDS011;2586;48.710;9.202;2022-10-26T11:22:52;5.80;;;2.00;;
5135;SDS011;2586;48.710;9.202;2022-10-26T11:25:41;8.87;;;1.80;;
5135;SDS011;2586;48.710;9.202;2022-10-26T11:31:09;5.00;;;1.40;;
5135;SDS011;2586;48.710;9.202;2022-10-26T11:33:43;10.83;;;1.63;;
5135;SDS011;2586;48.710;9.202;2022-10-26T11:36:39;6.50;;;1.80;;
5135;SDS011;2586;48.710;9.202;2022-10-26T11:39:13;8.30;;;2.17;;
5135;SDS011;2586;48.710;9.202;2022-10-26T11:42:10;6.47;;;1.70;;
5135;SDS011;2586;48.710;9.202;2022-10-26T11:44:54;6.90;;;2.20;;
5135;SDS011;2586;48.710;9.202;2022-10-26T11:48:31;8.27;;;2.20;;
5135;SDS011;2586;48.710;9.202;2022-10-26T11:50:32;5.40;;;2.43;;
5135;SDS011;2586;48.710;9.202;2022-10-26T11:56:02;7.70;;;1.97;;
5135;SDS011;2586;48.710;9.202;2022-10-26T11:58:29;7.53;;;1.90;;
5135;SDS011;2586;48.710;9.202;2022-10-26T12:01:00;2.70;;;1.40;;
5135;SDS011;2586;48.710;9.202;2022-10-26T12:03:32;5.30;;;1.77;;
5135;SDS011;2586;48.710;9.202;2022-10-26T12:06:02;5.60;;;2.00;;
5135;SDS011;2586;48.710;9.202;2022-10-26T12:08:37;3.53;;;1.40;;
5135;SDS011;2586;48.710;9.202;2022-10-26T12:13:50;4.73;;;1.47;;
5135;SDS011;2586;48.710;9.202;2022-10-26T12:16:28;5.33;;;2.07;;
5135;SDS011;2586;48.710;9.202;2022-10-26T12:22:12;3.50;;;1.80;;
5135;SDS011;2586;48.710;9.202;2022-10-26T12:25:03;8.57;;;1.63;;
5135;SDS011;2586;48.710;9.202;2022-10-26T12:27:47;7.13;;;1.70;;
5135;SDS011;2586;48.710;9.202;2022-10-26T12:37:59;7.33;;;2.10;;
5135;SDS011;2586;48.710;9.202;2022-10-26T12:42:51;5.33;;;1.70;;
5135;SDS011;2586;48.710;9.202;2022-10-26T12:45:18;3.50;;;1.70;;
5135;SDS011;2586;48.710;9.202;2022-10-26T13:00:34;14.73;;;2.00;;
5135;SDS011;2586;48.710;9.202;2022-10-26T13:03:28;8.80;;;1.77;;
5135;SDS011;2586;48.710;9.202;2022-10-26T13:08:51;6.90;;;2.30;;
5135;SDS011;2586;48.710;9.202;2022-10-26T13:11:33;9.83;;;2.00;;
5135;SDS011;2586;48.710;9.202;2022-10-26T13:14:03;4.73;;;1.70;;
5135;SDS011;2586;48.710;9.202;2022-10-26T13:16:31;2.67;;;1.40;;
5135;SDS011;2586;48.710;9.202;2022-10-26T13:18:57;12.93;;;2.60;;
5135;SDS011;2586;48.710;9.202;2022-10-26T13:21:24;8.03;;;2.17;;
5135;SDS011;2586;48.710;9.202;2022-10-26T13:26:25;4.93;;;1.47;;
5135;SDS011;2586;48.710;9.202;2022-10-26T13:28:56;6.13;;;2.23;;
5135;SDS011;2586;48.710;9.202;2022-10-26T13:36:35;8.73;;;2.27;;
5135;SDS011;2586;48.710;9.202;2022-10-26T13:39:09;11.40;;;2.17;;
5135;SDS011;2586;48.710;9.202;2022-10-26T13:41:37;8.77;;;1.80;;
5135;SDS011;2586;48.710;9.202;2022-10-26T13:44:06;5.60;;;1.63;;
5135;SDS011;2586;48.710;9.202;2022-10-26T13:46:46;6.67;;;1.23;;
5135;SDS011;2586;48.710;9.202;2022-10-26T13:49:19;8.00;;;1.90;;
5135;SDS011;2586;48.710;9.202;2022-10-26T13:51:49;11.03;;;2.20;;
5135;SDS011;2586;48.710;9.202;2022-10-26T13:54:24;7.80;;;1.97;;
5135;SDS011;2586;48.710;9.202;2022-10-26T13:56:56;12.50;;;2.10;;
5135;SDS011;2586;48.710;9.202;2022-10-26T13:59:23;8.43;;;1.90;;
5135;SDS011;2586;48.710;9.202;2022-10-26T14:05:01;6.33;;;1.80;;
5135;SDS011;2586;48.710;9.202;2022-10-26T14:07:35;9.17;;;1.50;;
5135;SDS011;2586;48.710;9.202;2022-10-26T14:10:06;7.00;;;1.70;;
5135;SDS011;2586;48.710;9.202;2022-10-26T14:12:47;10.73;;;2.37;;
5135;SDS011;2586;48.710;9.202;2022-10-26T14:15:13;5.30;;;1.93;;
5135;SDS011;2586;48.710;9.202;2022-10-26T14:17:40;9.13;;;1.90;;
5135;SDS011;2586;48.710;9.202;2022-10-26T14:20:05;11.57;;;1.57;;
5135;SDS011;2586;48.710;9.202;2022-10-26T14:22:39;5.73;;;1.40;;
5135;SDS011;2586;48.710;9.202;2022-10-26T14:25:16;12.83;;;2.73;;
5135;SDS011;2586;48.710;9.202;2022-10-26T14:27:52;8.90;;;2.00;;
5135;SDS011;2586;48.710;9.202;2022-10-26T14:30:29;11.50;;;2.30;;
5135;SDS011;2586;48.710;9.202;2022-10-26T14:32:56;5.60;;;1.87;;
5135;SDS011;2586;48.710;9.202;2022-10-26T14:35:29;8.30;;;1.90;;
5135;SDS011;2586;48.710;9.202;2022-10-26T14:38:04;4.57;;;1.80;;
5135;SDS011;2586;48.710;9.202;2022-10-26T14:40:34;7.17;;;1.90;;
5135;SDS011;2586;48.710;9.202;2022-10-26T14:43:01;6.50;;;1.47;;
5135;SDS011;2586;48.710;9.202;2022-10-26T14:45:29;7.17;;;1.23;;
5135;SDS011;2586;48.710;9.202;2022-10-26T14:47:58;7.47;;;1.80;;
5135;SDS011;2586;48.710;9.202;2022-10-26T14:50:25;11.60;;;2.20;;
5135;SDS011;2586;48.710;9.202;2022-10-26T14:52:56;8.07;;;2.00;;
5135;SDS011;2586;48.710;9.202;2022-10-26T14:55:25;11.60;;;1.70;;
5135;SDS011;2586;48.710;9.202;2022-10-26T14:57:51;3.10;;;1.17;;
5135;SDS011;2586;48.710;9.202;2022-10-26T15:00:30;20.83;;;2.47;;
5135;SDS011;2586;48.710;9.202;2022-10-26T15:02:56;6.13;;;1.70;;
5135;SDS011;2586;48.710;9.202;2022-10-26T15:07:48;7.87;;;2.00;;
5135;SDS011;2586;48.710;9.202;2022-10-26T15:13:18;2.20;;;1.60;;
5135;SDS011;2586;48.710;9.202;2022-10-26T15:15:47;7.30;;;1.70;;
5135;SDS011;2586;48.710;9.202;2022-10-26T15:18:17;9.07;;;1.90;;
5135;SDS011;2586;48.710;9.202;2022-10-26T15:20:49;5.57;;;2.00;;
5135;SDS011;2586;48.710;9.202;2022-10-26T15:23:16;7.33;;;1.70;;
5135;SDS011;2586;48.710;9.202;2022-10-26T15:25:55;7.10;;;2.13;;
5135;SDS011;2586;48.710;9.202;2022-10-26T15:28:37;13.43;;;1.77;;
5135;SDS011;2586;48.710;9.202;2022-10-26T15:33:36;25.07;;;2.13;;
5135;SDS011;2586;48.710;9.202;2022-10-26T15:38:31;4.13;;;1.50;;
5135;SDS011;2586;48.710;9.202;2022-10-26T15:40:57;14.77;;;2.70;;
5135;SDS011;2586;48.710;9.202;2022-10-26T15:43:23;5.07;;;2.20;;
5135;SDS011;2586;48.710;9.202;2022-10-26T15:45:48;14.43;;;3.00;;
5135;SDS011;2586;48.710;9.202;2022-10-26T15:48:21;18.83;;;2.00;;
5135;SDS011;2586;48.710;9.202;2022-10-26T15:50:53;8.60;;;2.13;;
5135;SDS011;2586;48.710;9.202;2022-10-26T15:53:20;7.07;;;2.20;;
5135;SDS011;2586;48.710;9.202;2022-10-26T15:55:48;14.47;;;2.50;;
5135;SDS011;2586;48.710;9.202;2022-10-26T15:58:16;9.23;;;2.10;;
5135;SDS011;2586;48.710;9.202;2022-10-26T16:00:42;26.33;;;3.23;;
5135;SDS011;2586;48.710;9.202;2022-10-26T16:03:21;23.43;;;2.30;;
5135;SDS011;2586;48.710;9.202;2022-10-26T16:05:48;12.47;;;1.43;;
5135;SDS011;2586;48.710;9.202;2022-10-26T16:08:20;22.57;;;3.03;;
5135;SDS011;2586;48.710;9.202;2022-10-26T16:10:45;11.83;;;2.57;;
5135;SDS011;2586;48.710;9.202;2022-10-26T16:13:12;18.93;;;3.20;;
5135;SDS011;2586;48.710;9.202;2022-10-26T16:15:38;9.50;;;2.20;;
5135;SDS011;2586;48.710;9.202;2022-10-26T16:18:04;14.43;;;3.17;;
5135;SDS011;2586;48.710;9.202;2022-10-26T16:20:29;7.93;;;2.97;;
5135;SDS011;2586;48.710;9.202;2022-10-26T16:22:55;9.40;;;2.97;;
5135;SDS011;2586;48.710;9.202;2022-10-26T16:25:24;13.17;;;2.87;;
5135;SDS011;2586;48.710;9.202;2022-10-26T16:27:50;5.70;;;2.40;;
5135;SDS011;2586;48.710;9.202;2022-10-26T16:30:17;28.10;;;4.07;;
5135;SDS011;2586;48.710;9.202;2022-10-26T16:32:43;11.60;;;2.87;;
5135;SDS011;2586;48.710;9.202;2022-10-26T16:35:09;9.30;;;2.23;;
5135;SDS011;2586;48.710;9.202;2022-10-26T16:37:35;14.63;;;2.33;;
5135;SDS011;2586;48.710;9.202;2022-10-26T16:40:01;3.30;;;2.00;;
5135;SDS011;2586;48.710;9.202;2022-10-26T16:42:29;11.87;;;2.93;;
5135;SDS011;2586;48.710;9.202;2022-10-26T16:44:55;11.40;;;3.00;;
5135;SDS011;2586;48.710;9.202;2022-10-26T16:47:20;5.73;;;2.60;;
5135;SDS011;2586;48.710;9.202;2022-10-26T16:49:46;7.63;;;2.80;;
5135;SDS011;2586;48.710;9.202;2022-10-26T16:52:12;15.87;;;4.53;;
5135;SDS011;2586;48.710;9.202;2022-10-26T16:54:37;9.17;;;3.97;;
5135;SDS011;2586;48.710;9.202;2022-10-26T16:57:03;14.83;;;3.50;;
5135;SDS011;2586;48.710;9.202;2022-10-26T16:59:29;12.00;;;4.30;;
5135;SDS011;2586;48.710;9.202;2022-10-26T17:01:55;13.90;;;3.60;;
5135;SDS011;2586;48.710;9.202;2022-10-26T17:04:20;12.70;;;3.67;;
5135;SDS011;2586;48.710;9.202;2022-10-26T17:06:46;13.87;;;4.20;;
5135;SDS011;2586;48.710;9.202;2022-10-26T17:09:12;15.10;;;4.63;;
5135;SDS011;2586;48.710;9.202;2022-10-26T17:11:37;7.77;;;3.70;;
5135;SDS011;2586;48.710;9.202;2022-10-26T17:14:03;14.70;;;4.33;;
5135;SDS011;2586;48.710;9.202;2022-10-26T17:16:28;6.97;;;2.87;;
5135;SDS011;2586;48.710;9.202;2022-10-26T17:18:54;7.37;;;2.90;;
5135;SDS011;2586;48.710;9.202;2022-10-26T17:21:26;10.43;;;3.60;;
5135;SDS011;2586;48.710;9.202;2022-10-26T17:23:56;12.03;;;3.60;;
5135;SDS011;2586;48.710;9.202;2022-10-26T17:26:23;10.40;;;3.23;;
5135;SDS011;2586;48.710;9.202;2022-10-26T17:28:52;9.83;;;3.47;;
5135;SDS011;2586;48.710;9.202;2022-10-26T17:31:20;14.90;;;3.70;;
5135;SDS011;2586;48.710;9.202;2022-10-26T17:33:46;19.97;;;3.13;;
5135;SDS011;2586;48.710;9.202;2022-10-26T17:36:15;10.27;;;3.23;;
5135;SDS011;2586;48.710;9.202;2022-10-26T17:38:44;7.53;;;3.80;;
5135;SDS011;2586;48.710;9.202;2022-10-26T17:41:12;9.50;;;3.67;;
5135;SDS011;2586;48.710;9.202;2022-10-26T17:43:40;11.23;;;3.70;;
5135;SDS011;2586;48.710;9.202;2022-10-26T17:46:07;10.90;;;4.13;;
5135;SDS011;2586;48.710;9.202;2022-10-26T17:48:35;18.07;;;4.10;;
5135;SDS011;2586;48.710;9.202;2022-10-26T17:51:01;12.50;;;5.83;;